KSLH

Cheboygan County Airport

Cheboygan, Michigan, USA
METAR KSLH 182235Z AUTO 34007KT 10SM CLR 22/16 A2992 RMK AO2 T02240159
Observed Flight Rules
Jun-18 @ 22:35 UTC (7 minutes ago) Visual Flight Rules
Wind Visibility Clouds
340° at 7 knots 10 miles
  • Clear skies
Temperatures Readings
Current 22°C / 72°F
Dewpoint 16°C / 61°F
Humidity 69%
Altimeter 29.92" Hg
Pressure 1013 hPa
Elevation 195
METAR KSLH 182235Z AUTO 34007KT 10SM CLR 22/16 A2992 RMK AO2 T02240159
Observed Flight Rules
Jun-18 @ 22:35 UTC
(7 minutes ago)
VFR
Wind Visibility
340° at 7 knots 10 miles
Clouds
  • Clear skies
Temperature Dewpoint
22°C / 72°F 16°C / 61°F
Humidity Altimeter Pressure
69% 29.92" Hg 1013 hPa